Time;durP1;ratioP1;P1;durP2;ratioP2;P2;SDS_P1;SDS_P2;PMS_P1;PMS_P2;Temp;Humidity;BMP_temperature;BMP_pressure;BME280_temperature;BME280_humidity;BME280_pressure;Samples;Min_cycle;Max_cycle;Signal;HPM_P1;HPM_P2
2021/05/09 00:01:35;;;;;;;2.45;1.88;;;15.60;69.30;;;;;;5039802;28;20022;-96
2021/05/09 00:04:01;;;;;;;3.35;2.38;;;15.60;69.30;;;;;;5031850;28;20044;-96
2021/05/09 00:07:00;;;;;;;4.13;1.90;;;15.50;69.40;;;;;;5055816;28;20029;-96
2021/05/09 00:20:14;;;;;;;3.63;2.10;;;15.50;69.60;;;;;;5853708;22;20956;-96
2021/05/09 00:25:16;;;;;;;3.00;1.98;;;15.40;69.50;;;;;;6032652;22;21242;-96
2021/05/09 00:27:43;;;;;;;2.08;1.25;;;15.40;69.50;;;;;;5042189;28;20039;-96
2021/05/09 00:30:10;;;;;;;2.83;1.95;;;15.40;69.50;;;;;;5071678;28;20017;-96
2021/05/09 00:32:37;;;;;;;3.22;2.30;;;15.40;69.50;;;;;;5075188;28;20025;-96
2021/05/09 00:35:04;;;;;;;3.03;1.95;;;15.30;69.60;;;;;;5052977;28;20044;-96
2021/05/09 00:53:08;;;;;;;2.33;1.73;;;15.30;69.80;;;;;;5042926;28;20060;-96
2021/05/09 00:55:37;;;;;;;3.13;1.83;;;15.30;69.70;;;;;;5040303;28;20014;-96
2021/05/09 00:58:03;;;;;;;5.18;3.05;;;15.30;69.70;;;;;;5053959;28;20009;-96
2021/05/09 01:00:31;;;;;;;2.28;2.00;;;15.30;69.80;;;;;;5169849;22;20053;-96
2021/05/09 01:03:01;;;;;;;2.70;2.00;;;15.30;69.70;;;;;;5036645;28;20061;-96
2021/05/09 01:05:27;;;;;;;3.10;1.90;;;15.20;69.60;;;;;;5024169;28;20033;-96
2021/05/09 01:07:54;;;;;;;3.55;1.88;;;15.20;69.70;;;;;;5039938;28;20026;-96
2021/05/09 01:10:20;;;;;;;3.35;2.10;;;15.20;69.70;;;;;;5049825;28;20026;-96
2021/05/09 01:12:46;;;;;;;2.45;1.65;;;15.20;69.70;;;;;;5052224;28;20032;-96
2021/05/09 01:15:12;;;;;;;3.15;1.88;;;15.20;69.70;;;;;;5051585;28;20033;-96
2021/05/09 01:17:38;;;;;;;3.50;2.15;;;15.20;69.70;;;;;;5036308;28;20025;-95
2021/05/09 01:20:13;;;;;;;3.00;1.90;;;15.10;69.70;;;;;;5037929;28;20076;-96
2021/05/09 01:25:14;;;;;;;3.22;1.83;;;15.10;69.80;;;;;;5296996;22;20053;-96
2021/05/09 01:27:39;;;;;;;3.60;2.20;;;15.10;69.80;;;;;;5073410;28;20049;-96
2021/05/09 01:48:05;;;;;;;2.15;1.70;;;14.90;70.10;;;;;;5060681;23;583809;-96
2021/05/09 01:50:31;;;;;;;1.92;1.63;;;14.90;70.20;;;;;;5025460;28;20036;-96
2021/05/09 01:53:00;;;;;;;3.28;1.90;;;14.90;70.40;;;;;;5049023;28;20013;-96
2021/05/09 01:55:26;;;;;;;2.40;1.80;;;14.70;70.50;;;;;;5030623;28;20107;-96
2021/05/09 01:57:52;;;;;;;3.55;1.85;;;14.80;70.60;;;;;;5045649;28;20030;-96
2021/05/09 02:00:19;;;;;;;2.97;1.70;;;14.70;70.60;;;;;;5034868;28;20059;-96
2021/05/09 02:02:45;;;;;;;1.77;1.52;;;14.70;70.60;;;;;;5018041;28;20028;-96
2021/05/09 02:05:12;;;;;;;2.55;1.85;;;14.70;70.70;;;;;;5035105;28;20030;-96
2021/05/09 02:07:37;;;;;;;3.28;1.70;;;14.60;70.70;;;;;;5037955;28;20009;-96
2021/05/09 02:10:06;;;;;;;2.92;1.90;;;14.60;70.80;;;;;;5040536;28;20071;-96
2021/05/09 02:12:32;;;;;;;2.00;1.77;;;14.60;70.80;;;;;;5037999;28;20063;-96
2021/05/09 02:14:57;;;;;;;3.15;2.03;;;14.50;70.90;;;;;;5036341;28;20025;-95
2021/05/09 02:17:23;;;;;;;2.03;1.67;;;14.50;71.00;;;;;;5018948;28;20014;-96
2021/05/09 02:19:49;;;;;;;2.35;1.70;;;14.40;71.00;;;;;;5018119;28;20036;-95
2021/05/09 02:22:14;;;;;;;3.35;1.80;;;14.40;71.10;;;;;;5047172;28;20028;-95
2021/05/09 02:24:42;;;;;;;2.75;1.73;;;14.30;71.20;;;;;;5025008;28;20031;-95
2021/05/09 02:27:07;;;;;;;1.98;1.70;;;14.30;71.30;;;;;;5034471;28;20017;-95
2021/05/09 02:29:33;;;;;;;1.95;1.63;;;14.30;71.30;;;;;;5016062;28;20376;-95
2021/05/09 02:31:58;;;;;;;3.15;2.05;;;14.20;71.30;;;;;;5017143;28;20057;-96
2021/05/09 02:34:24;;;;;;;4.28;2.08;;;14.20;71.50;;;;;;5034282;28;20467;-96
2021/05/09 02:36:50;;;;;;;3.00;2.10;;;14.10;71.60;;;;;;5017588;28;20040;-96
2021/05/09 02:39:15;;;;;;;2.83;1.80;;;14.10;71.80;;;;;;5046448;28;20041;-96
2021/05/09 02:41:42;;;;;;;3.00;2.15;;;14.10;71.80;;;;;;5041177;28;20017;-96
2021/05/09 02:44:09;;;;;;;3.63;2.08;;;14.00;71.80;;;;;;5038597;28;20112;-96
2021/05/09 02:46:34;;;;;;;3.80;1.98;;;14.00;71.80;;;;;;5044301;28;20024;-96
2021/05/09 02:49:00;;;;;;;2.75;1.90;;;13.90;71.80;;;;;;5021832;28;20033;-95
2021/05/09 02:51:26;;;;;;;2.25;2.05;;;13.90;72.00;;;;;;5036573;28;20041;-95
2021/05/09 02:53:51;;;;;;;2.65;1.83;;;13.90;72.10;;;;;;5033876;28;20103;-94
2021/05/09 02:56:18;;;;;;;3.92;2.30;;;13.80;72.10;;;;;;5034699;28;20022;-94
2021/05/09 02:58:43;;;;;;;4.18;2.22;;;13.80;72.20;;;;;;5034552;28;20043;-93
2021/05/09 03:01:10;;;;;;;2.72;2.20;;;13.70;72.50;;;;;;5034156;28;20056;-94
2021/05/09 03:03:35;;;;;;;2.90;2.05;;;13.70;72.70;;;;;;5034166;28;20037;-94
2021/05/09 03:06:01;;;;;;;5.05;2.65;;;13.70;72.80;;;;;;5042488;28;20022;-96
2021/05/09 03:08:27;;;;;;;4.45;2.20;;;13.60;72.70;;;;;;5028558;28;20028;-96
2021/05/09 03:10:52;;;;;;;2.67;2.05;;;13.60;72.70;;;;;;5020734;28;20075;-94
2021/05/09 03:13:18;;;;;;;2.45;1.63;;;13.60;72.80;;;;;;5016513;28;20029;-94
2021/05/09 03:15:43;;;;;;;3.33;1.95;;;13.60;72.80;;;;;;5035803;28;20055;-95
2021/05/09 03:18:38;;;;;;;3.33;1.98;;;13.60;72.80;;;;;;5021711;28;20432;-96
2021/05/09 03:21:11;;;;;;;2.83;2.03;;;13.50;73.00;;;;;;5057460;28;20033;-96
2021/05/09 03:24:28;;;;;;;4.80;2.20;;;13.50;73.20;;;;;;5044703;28;20012;-96
2021/05/09 03:26:56;;;;;;;3.63;2.42;;;13.50;73.50;;;;;;5023945;28;20033;-96
2021/05/09 03:29:21;;;;;;;2.95;1.83;;;13.40;73.90;;;;;;5038681;28;20042;-96
2021/05/09 03:31:47;;;;;;;3.15;2.15;;;13.40;73.80;;;;;;5038114;28;20100;-96
2021/05/09 03:34:13;;;;;;;2.72;2.08;;;13.40;73.80;;;;;;5028002;28;20029;-96
2021/05/09 03:36:38;;;;;;;3.55;2.30;;;13.40;74.00;;;;;;5043695;28;20033;-96
2021/05/09 03:39:04;;;;;;;4.28;3.30;;;13.30;74.00;;;;;;5024082;28;20365;-96
2021/05/09 03:41:30;;;;;;;4.20;2.53;;;13.30;74.50;;;;;;5043212;28;20025;-96
2021/05/09 03:43:56;;;;;;;2.20;2.00;;;13.30;74.40;;;;;;5014493;28;20036;-96
2021/05/09 03:46:21;;;;;;;3.53;2.42;;;13.40;74.40;;;;;;5030929;28;20026;-96
2021/05/09 03:48:47;;;;;;;2.85;2.42;;;13.40;74.20;;;;;;5033262;28;20048;-96
2021/05/09 03:51:13;;;;;;;3.47;2.28;;;13.40;74.30;;;;;;5040584;28;20051;-96
2021/05/09 03:53:38;;;;;;;3.33;2.72;;;13.40;74.20;;;;;;5020018;28;20076;-96
2021/05/09 03:56:04;;;;;;;3.08;2.22;;;13.30;74.30;;;;;;5019796;28;20025;-96
2021/05/09 03:58:29;;;;;;;3.65;2.75;;;13.40;74.40;;;;;;5038028;28;20061;-95
2021/05/09 04:00:55;;;;;;;4.03;2.50;;;13.30;74.50;;;;;;5019768;28;20430;-95
2021/05/09 04:03:21;;;;;;;3.55;2.63;;;13.30;74.50;;;;;;5037484;28;20032;-95
2021/05/09 04:05:51;;;;;;;3.33;2.67;;;13.30;74.70;;;;;;5037960;28;20056;-95
2021/05/09 04:08:17;;;;;;;3.20;2.10;;;13.30;74.90;;;;;;5019882;28;20104;-93
2021/05/09 04:10:42;;;;;;;4.45;2.42;;;13.30;74.80;;;;;;5037044;28;20420;-92
2021/05/09 04:13:08;;;;;;;4.47;2.42;;;13.30;74.90;;;;;;5036914;28;20480;-92
2021/05/09 04:15:33;;;;;;;3.65;2.53;;;13.30;75.50;;;;;;5016788;28;20481;-91
2021/05/09 04:17:59;;;;;;;4.13;3.00;;;13.30;75.30;;;;;;5030584;28;20025;-94
2021/05/09 04:20:24;;;;;;;3.67;2.50;;;13.30;75.30;;;;;;5018542;28;20033;-92
2021/05/09 04:22:50;;;;;;;3.10;2.47;;;13.30;75.40;;;;;;5018855;28;20022;-91
2021/05/09 04:25:15;;;;;;;3.90;2.90;;;13.30;75.20;;;;;;5036123;28;20052;-91
2021/05/09 04:27:41;;;;;;;3.83;2.75;;;13.40;75.00;;;;;;5035332;28;20048;-93
2021/05/09 04:30:07;;;;;;;4.03;2.60;;;13.50;74.90;;;;;;5037347;28;20037;-95
2021/05/09 04:32:33;;;;;;;3.55;2.58;;;13.50;75.00;;;;;;5019129;28;20502;-93
2021/05/09 04:34:58;;;;;;;4.00;2.50;;;13.40;75.00;;;;;;5018685;28;20022;-94
2021/05/09 04:37:24;;;;;;;4.43;2.63;;;13.40;75.00;;;;;;5036424;28;20060;-95
2021/05/09 04:39:50;;;;;;;4.00;3.00;;;13.40;75.30;;;;;;5036505;28;20040;-94
2021/05/09 04:42:16;;;;;;;5.35;2.85;;;13.40;75.30;;;;;;5037195;28;20025;-95
2021/05/09 04:44:41;;;;;;;4.10;2.60;;;13.50;75.50;;;;;;5036464;28;20040;-95
2021/05/09 04:47:07;;;;;;;4.07;2.95;;;13.50;75.40;;;;;;5038249;28;20017;-96
2021/05/09 04:49:34;;;;;;;3.40;2.60;;;13.50;75.30;;;;;;5050332;28;20044;-96
2021/05/09 04:52:00;;;;;;;4.85;3.05;;;13.60;75.10;;;;;;5040903;28;20022;-96
2021/05/09 04:54:26;;;;;;;2.92;2.05;;;13.60;75.20;;;;;;5037149;28;20025;-96
2021/05/09 04:59:34;;;;;;;3.10;2.22;;;13.70;74.80;;;;;;5297919;22;20057;-96
2021/05/09 05:01:59;;;;;;;1.90;1.70;;;13.70;74.70;;;;;;5071695;28;20040;-96
2021/05/09 05:04:28;;;;;;;2.92;2.08;;;13.80;74.70;;;;;;5052844;28;20261;-95
2021/05/09 05:06:58;;;;;;;2.30;1.90;;;13.80;74.70;;;;;;5076935;28;20029;-94
2021/05/09 05:09:28;;;;;;;6.72;3.40;;;13.90;74.60;;;;;;5062510;28;20009;-96
2021/05/09 05:15:05;;;;;;;5.03;3.10;;;14.00;74.80;;;;;;5666996;22;20044;-96
2021/05/09 05:17:40;;;;;;;3.17;2.83;;;15.00;73.90;;;;;;5246532;23;20038;-96
2021/05/09 05:22:36;;;;;;;5.03;2.80;;;16.70;68.60;;;;;;5043183;28;20046;-96
2021/05/09 05:25:02;;;;;;;4.63;3.00;;;17.30;66.40;;;;;;5018917;28;20486;-95
2021/05/09 05:27:27;;;;;;;3.75;2.38;;;17.80;65.00;;;;;;5038300;28;20456;-96
2021/05/09 05:29:53;;;;;;;4.53;2.88;;;18.10;63.70;;;;;;5019824;28;20150;-96
2021/05/09 05:32:21;;;;;;;3.90;2.72;;;18.00;63.20;;;;;;5024837;28;20085;-96
2021/05/09 05:34:47;;;;;;;3.28;2.55;;;18.40;62.40;;;;;;5044768;28;20053;-95
2021/05/09 05:37:13;;;;;;;2.70;2.42;;;18.60;61.60;;;;;;5018975;28;20022;-96
2021/05/09 05:39:38;;;;;;;2.95;2.03;;;18.40;61.70;;;;;;5035824;28;20067;-96
2021/05/09 05:42:04;;;;;;;2.88;2.10;;;18.30;62.20;;;;;;5035426;28;20449;-96
2021/05/09 05:44:29;;;;;;;1.70;1.55;;;18.40;62.20;;;;;;5037952;28;20128;-92
2021/05/09 05:46:56;;;;;;;3.05;2.40;;;18.50;62.20;;;;;;5019459;28;20021;-96
2021/05/09 05:49:22;;;;;;;3.42;2.50;;;18.80;61.20;;;;;;5034581;28;20018;-93
2021/05/09 05:51:47;;;;;;;3.38;2.60;;;18.40;61.20;;;;;;5016174;28;20026;-96
2021/05/09 05:54:13;;;;;;;3.08;2.47;;;18.00;62.10;;;;;;5033566;28;20025;-96
2021/05/09 05:56:38;;;;;;;3.15;2.47;;;17.60;63.10;;;;;;5034201;28;20033;-96
2021/05/09 05:59:04;;;;;;;6.07;3.13;;;17.20;64.10;;;;;;5033860;28;20552;-96
2021/05/09 06:01:30;;;;;;;2.88;2.38;;;16.90;64.90;;;;;;5010006;28;20032;-96
2021/05/09 06:03:55;;;;;;;5.22;3.10;;;16.80;65.40;;;;;;5004576;28;20022;-96
2021/05/09 06:06:22;;;;;;;5.18;2.67;;;16.80;65.60;;;;;;5034800;28;20417;-96
2021/05/09 06:08:51;;;;;;;4.60;2.88;;;17.00;65.40;;;;;;5037059;28;20053;-96
2021/05/09 06:11:16;;;;;;;3.85;2.67;;;17.90;64.20;;;;;;5016723;28;20025;-96
2021/05/09 06:13:42;;;;;;;3.13;2.30;;;18.80;61.50;;;;;;5034276;28;20029;-96
2021/05/09 06:16:07;;;;;;;3.25;2.03;;;19.60;59.30;;;;;;5034602;28;20021;-96
2021/05/09 06:18:33;;;;;;;3.45;2.30;;;19.90;58.30;;;;;;5017484;28;20033;-94
2021/05/09 06:20:59;;;;;;;3.35;2.30;;;20.20;57.30;;;;;;5034349;28;20033;-94
2021/05/09 06:23:26;;;;;;;2.88;1.90;;;20.70;56.00;;;;;;5017538;28;20029;-95
2021/05/09 06:25:52;;;;;;;2.92;2.20;;;20.30;55.90;;;;;;5033586;28;20033;-95
2021/05/09 06:28:18;;;;;;;4.28;2.35;;;19.90;56.70;;;;;;5036089;28;20392;-95
2021/05/09 06:30:48;;;;;;;3.70;2.35;;;20.00;56.40;;;;;;5017110;28;20013;-93
2021/05/09 06:33:15;;;;;;;2.67;2.30;;;19.70;57.20;;;;;;5033900;28;20479;-91
2021/05/09 06:35:43;;;;;;;2.10;1.90;;;20.40;56.70;;;;;;5033403;28;20148;-93
2021/05/09 06:38:10;;;;;;;3.05;2.05;;;21.20;55.80;;;;;;5033086;28;20465;-93
2021/05/09 06:40:37;;;;;;;2.08;1.65;;;21.80;54.50;;;;;;5015863;28;20033;-93
2021/05/09 06:43:07;;;;;;;3.03;1.92;;;22.30;53.80;;;;;;5015444;28;20017;-93
2021/05/09 06:45:34;;;;;;;3.35;2.50;;;22.30;53.50;;;;;;5015303;28;20527;-93
2021/05/09 06:48:02;;;;;;;2.55;2.00;;;22.30;53.40;;;;;;5033201;28;20478;-93
2021/05/09 06:50:29;;;;;;;2.58;2.15;;;22.40;53.30;;;;;;5016707;28;20068;-92
2021/05/09 06:53:06;;;;;;;2.40;2.20;;;22.00;53.30;;;;;;5035018;28;20383;-93
2021/05/09 06:55:31;;;;;;;2.45;2.00;;;21.70;54.70;;;;;;5037517;28;20071;-93
2021/05/09 06:57:57;;;;;;;5.35;1.83;;;21.40;53.90;;;;;;5036029;28;20464;-94
2021/05/09 07:00:24;;;;;;;2.35;1.92;;;21.10;54.80;;;;;;5036464;28;20096;-95
2021/05/09 07:02:49;;;;;;;4.40;2.20;;;20.90;54.90;;;;;;5025459;28;20024;-95
2021/05/09 07:05:16;;;;;;;3.30;2.25;;;21.10;55.10;;;;;;5027343;28;20022;-93
2021/05/09 07:07:57;;;;;;;3.38;1.80;;;21.20;54.00;;;;;;5037137;28;20059;-93
2021/05/09 07:10:25;;;;;;;3.03;2.10;;;21.30;54.40;;;;;;5019224;28;20117;-95
2021/05/09 07:12:51;;;;;;;2.35;1.70;;;21.30;53.90;;;;;;5037557;28;20033;-93
2021/05/09 07:15:26;;;;;;;2.83;1.90;;;21.40;54.20;;;;;;5037487;28;20491;-95
2021/05/09 07:18:13;;;;;;;2.25;1.90;;;21.40;54.00;;;;;;5036904;28;20087;-96
2021/05/09 07:20:43;;;;;;;2.70;1.88;;;21.40;53.70;;;;;;5036433;28;20033;-95
2021/05/09 07:23:12;;;;;;;3.53;2.35;;;21.30;53.70;;;;;;5035462;28;20048;-90
2021/05/09 07:25:39;;;;;;;2.95;1.95;;;21.00;53.20;;;;;;5018824;28;20018;-96
2021/05/09 07:28:09;;;;;;;2.75;2.15;;;21.20;53.90;;;;;;5038443;28;20017;-93
2021/05/09 07:30:35;;;;;;;2.75;2.10;;;21.20;53.30;;;;;;4998611;28;20049;-91
2021/05/09 07:33:01;;;;;;;3.25;2.25;;;21.10;53.40;;;;;;5014440;28;20024;-92
2021/05/09 07:35:28;;;;;;;4.45;2.53;;;20.90;53.50;;;;;;5035890;28;20109;-92
2021/05/09 07:37:54;;;;;;;3.90;2.65;;;20.50;53.50;;;;;;5034955;28;20021;-90
2021/05/09 07:40:22;;;;;;;2.25;1.77;;;20.30;54.20;;;;;;5014883;28;20095;-89
2021/05/09 07:42:48;;;;;;;3.53;2.13;;;20.20;54.90;;;;;;5030486;28;20025;-92
2021/05/09 07:45:19;;;;;;;2.22;2.03;;;20.10;54.70;;;;;;5033611;28;20091;-94
2021/05/09 07:47:45;;;;;;;3.33;2.00;;;20.00;54.40;;;;;;5036243;28;20113;-95
2021/05/09 07:50:12;;;;;;;3.00;2.30;;;19.90;54.80;;;;;;5036174;28;20061;-94
2021/05/09 07:52:38;;;;;;;2.92;2.38;;;19.90;55.10;;;;;;5018488;28;20053;-94
2021/05/09 07:55:09;;;;;;;2.78;1.83;;;19.80;54.40;;;;;;5050168;28;20077;-96
2021/05/09 07:57:44;;;;;;;2.10;1.80;;;19.90;55.10;;;;;;5049271;28;20616;-96
2021/05/09 08:00:13;;;;;;;3.42;1.80;;;20.10;55.30;;;;;;5018349;28;20037;-91
2021/05/09 08:02:45;;;;;;;1.95;1.55;;;20.40;55.00;;;;;;5034061;28;20560;-92
2021/05/09 08:05:12;;;;;;;3.05;1.85;;;20.60;55.00;;;;;;5016585;28;20032;-90
2021/05/09 08:07:54;;;;;;;1.73;1.40;;;20.80;54.40;;;;;;5034370;28;20022;-91
2021/05/09 08:10:22;;;;;;;4.07;2.00;;;21.10;54.40;;;;;;5031515;28;20021;-92
2021/05/09 08:12:48;;;;;;;2.42;1.65;;;21.10;53.10;;;;;;5034333;28;20076;-89
2021/05/09 08:15:15;;;;;;;2.15;1.58;;;21.00;53.50;;;;;;5034334;28;20671;-94
2021/05/09 08:17:42;;;;;;;4.93;2.20;;;21.00;53.80;;;;;;5034485;28;20467;-88
2021/05/09 08:20:09;;;;;;;5.65;2.60;;;21.00;53.60;;;;;;5028548;28;20533;-90
2021/05/09 08:22:35;;;;;;;2.97;1.70;;;21.00;53.60;;;;;;5023114;28;20053;-90
2021/05/09 08:25:01;;;;;;;1.83;1.33;;;21.00;54.30;;;;;;5025352;28;20967;-91
2021/05/09 08:27:30;;;;;;;1.77;1.63;;;21.00;55.20;;;;;;5016485;28;20026;-92
2021/05/09 08:29:56;;;;;;;4.00;2.10;;;20.90;56.30;;;;;;4999283;28;20369;-87
2021/05/09 08:32:22;;;;;;;2.55;1.60;;;20.60;55.10;;;;;;5032392;28;20040;-87
2021/05/09 08:34:47;;;;;;;3.50;1.90;;;20.40;55.80;;;;;;5022382;28;20022;-88
2021/05/09 08:37:13;;;;;;;1.67;1.42;;;20.50;55.70;;;;;;5031794;28;20033;-87
2021/05/09 08:39:39;;;;;;;3.80;1.90;;;20.70;55.30;;;;;;5032193;28;20539;-89
2021/05/09 08:42:08;;;;;;;2.60;1.60;;;20.70;53.10;;;;;;5017483;28;20028;-90
2021/05/09 08:44:34;;;;;;;2.97;1.88;;;20.70;53.20;;;;;;5032542;28;20095;-89
2021/05/09 08:47:02;;;;;;;2.53;2.00;;;20.90;53.50;;;;;;5014794;28;20018;-89
2021/05/09 08:49:29;;;;;;;3.38;1.75;;;20.90;53.30;;;;;;5032278;28;20033;-89
2021/05/09 08:51:55;;;;;;;1.95;1.52;;;21.00;53.50;;;;;;5032485;28;20029;-90
2021/05/09 08:54:20;;;;;;;2.50;1.85;;;21.10;53.90;;;;;;5032278;28;20388;-89
2021/05/09 08:56:46;;;;;;;3.17;1.88;;;21.30;54.10;;;;;;5015313;28;20033;-88
2021/05/09 08:59:12;;;;;;;1.50;1.40;;;21.50;54.30;;;;;;5033326;28;20042;-88
2021/05/09 09:01:40;;;;;;;1.55;1.30;;;21.60;54.00;;;;;;5032623;28;20037;-89
2021/05/09 09:04:07;;;;;;;2.35;1.70;;;21.70;54.20;;;;;;5014434;28;20033;-89
2021/05/09 09:06:49;;;;;;;2.55;2.00;;;21.70;54.00;;;;;;5032678;28;20018;-89
2021/05/09 09:09:19;;;;;;;2.80;2.40;;;21.80;53.70;;;;;;5033031;28;20025;-90
2021/05/09 09:11:53;;;;;;;2.30;1.52;;;21.80;53.10;;;;;;5015111;28;20622;-89
2021/05/09 09:14:27;;;;;;;2.45;1.85;;;21.90;53.70;;;;;;5031379;28;20022;-89
2021/05/09 09:17:13;;;;;;;2.33;1.80;;;22.00;53.50;;;;;;5033096;28;20097;-89
2021/05/09 09:20:03;;;;;;;3.67;2.15;;;22.00;53.50;;;;;;5014700;28;20373;-89
2021/05/09 09:22:49;;;;;;;2.35;1.90;;;22.00;53.70;;;;;;4995097;28;20033;-90
2021/05/09 09:25:17;;;;;;;3.03;2.10;;;21.90;54.00;;;;;;5023832;28;20083;-87
2021/05/09 09:27:45;;;;;;;2.97;2.60;;;21.90;54.40;;;;;;5016488;28;20080;-88
2021/05/09 09:30:12;;;;;;;2.47;1.98;;;22.00;54.10;;;;;;5028196;28;20029;-87
2021/05/09 09:32:38;;;;;;;2.03;1.63;;;22.00;55.30;;;;;;5029985;28;20108;-88
2021/05/09 09:35:04;;;;;;;2.38;2.08;;;22.20;54.60;;;;;;5009578;28;20113;-88
2021/05/09 09:37:34;;;;;;;4.45;1.98;;;22.30;54.40;;;;;;5025135;28;20186;-87
2021/05/09 09:40:02;;;;;;;2.78;2.05;;;22.30;54.10;;;;;;5012090;28;20045;-88
2021/05/09 09:42:41;;;;;;;2.47;2.05;;;22.50;54.30;;;;;;5027672;28;20121;-87
2021/05/09 09:45:15;;;;;;;2.35;2.05;;;22.50;53.90;;;;;;5011808;28;20789;-87
2021/05/09 09:48:06;;;;;;;1.92;1.80;;;22.50;53.80;;;;;;5026555;28;20044;-88
2021/05/09 09:50:47;;;;;;;2.85;1.98;;;22.50;54.50;;;;;;5008299;28;20529;-88
2021/05/09 09:53:39;;;;;;;1.90;1.70;;;22.40;53.90;;;;;;5008611;28;20033;-88
2021/05/09 09:56:22;;;;;;;5.10;2.60;;;22.50;54.20;;;;;;5017760;28;20014;-88
2021/05/09 09:58:58;;;;;;;3.45;2.35;;;22.60;53.80;;;;;;5026840;28;20056;-87
2021/05/09 10:01:27;;;;;;;2.40;1.75;;;22.50;53.70;;;;;;5029172;28;20103;-87
2021/05/09 10:03:56;;;;;;;3.00;1.80;;;22.40;54.00;;;;;;5010446;28;20507;-88
2021/05/09 10:06:24;;;;;;;2.92;1.88;;;22.40;54.30;;;;;;5028155;28;20844;-88
2021/05/09 10:08:50;;;;;;;3.92;1.70;;;22.50;54.40;;;;;;5028665;28;20025;-87
2021/05/09 10:11:17;;;;;;;2.25;1.50;;;22.60;54.40;;;;;;5004223;28;20033;-88
2021/05/09 10:13:43;;;;;;;3.38;2.05;;;22.70;54.30;;;;;;5022061;28;20018;-88
2021/05/09 10:16:10;;;;;;;4.22;1.88;;;22.80;54.20;;;;;;5020504;28;20033;-88
2021/05/09 10:18:39;;;;;;;2.75;1.48;;;22.90;54.20;;;;;;5008396;28;20030;-89
2021/05/09 10:21:05;;;;;;;1.70;1.60;;;23.10;54.10;;;;;;5023515;28;20352;-87
2021/05/09 10:23:31;;;;;;;2.45;1.65;;;23.20;53.40;;;;;;5022570;28;20146;-88
2021/05/09 10:25:58;;;;;;;1.98;1.70;;;23.30;53.20;;;;;;5022298;28;20023;-88
2021/05/09 10:28:25;;;;;;;2.30;1.65;;;23.50;53.20;;;;;;5023622;28;20620;-88
2021/05/09 10:30:56;;;;;;;2.05;1.60;;;23.50;52.70;;;;;;5024905;28;20079;-88
2021/05/09 10:33:37;;;;;;;2.42;1.70;;;23.70;52.60;;;;;;5021808;28;20075;-89
2021/05/09 10:36:05;;;;;;;2.15;1.60;;;23.80;51.60;;;;;;5005673;28;20039;-91
2021/05/09 10:38:30;;;;;;;2.53;1.75;;;23.90;51.90;;;;;;5027033;28;20380;-89
2021/05/09 10:41:10;;;;;;;2.17;1.50;;;24.00;51.70;;;;;;5028115;28;20033;-91
2021/05/09 10:43:35;;;;;;;4.57;2.00;;;24.00;51.10;;;;;;5006665;28;20025;-90
2021/05/09 10:46:01;;;;;;;3.35;1.50;;;24.10;51.10;;;;;;5006971;28;20520;-89
2021/05/09 10:51:23;;;;;;;2.55;1.70;;;24.00;51.00;;;;;;5029462;28;20036;-87
2021/05/09 10:53:48;;;;;;;1.73;1.63;;;24.10;51.40;;;;;;5020708;28;20030;-87
2021/05/09 10:56:14;;;;;;;3.60;1.25;;;24.00;51.60;;;;;;5007914;28;20033;-89
2021/05/09 10:58:49;;;;;;;2.63;1.30;;;24.10;51.80;;;;;;5009384;28;20044;-87
2021/05/09 11:01:23;;;;;;;2.78;1.77;;;24.20;51.70;;;;;;5027413;28;20079;-88
2021/05/09 11:03:56;;;;;;;2.85;1.75;;;24.10;51.40;;;;;;5007129;28;20076;-86
2021/05/09 11:06:28;;;;;;;3.10;1.75;;;24.10;51.30;;;;;;5027140;28;20029;-86
2021/05/09 11:08:59;;;;;;;2.67;1.80;;;23.90;51.20;;;;;;5024684;28;20121;-87
2021/05/09 11:11:25;;;;;;;1.73;1.50;;;23.80;51.60;;;;;;5018647;28;20096;-88
2021/05/09 11:13:56;;;;;;;2.67;1.60;;;23.70;51.80;;;;;;5023720;28;20033;-87
2021/05/09 11:16:23;;;;;;;2.72;1.50;;;23.60;52.40;;;;;;5003611;28;20083;-86
2021/05/09 11:19:02;;;;;;;2.95;2.00;;;23.40;53.30;;;;;;5024227;28;20701;-88
2021/05/09 11:21:41;;;;;;;3.10;1.70;;;23.30;54.20;;;;;;5019888;28;20576;-86
2021/05/09 11:24:08;;;;;;;2.55;1.58;;;23.30;54.50;;;;;;5017744;28;20527;-89
2021/05/09 11:26:39;;;;;;;2.35;1.85;;;23.30;54.30;;;;;;5023276;28;20034;-88
2021/05/09 11:29:13;;;;;;;3.25;1.70;;;23.30;54.10;;;;;;5016293;28;20420;-87
2021/05/09 11:32:04;;;;;;;1.90;1.60;;;23.20;53.80;;;;;;5022661;28;20100;-91
2021/05/09 11:34:30;;;;;;;1.80;1.50;;;23.20;53.90;;;;;;5021337;28;21881;-87
2021/05/09 11:36:57;;;;;;;1.88;1.35;;;23.20;54.00;;;;;;5016783;28;20016;-87
2021/05/09 11:39:37;;;;;;;2.17;1.50;;;23.20;54.00;;;;;;5007382;28;20084;-87
2021/05/09 11:42:12;;;;;;;6.25;1.88;;;23.30;53.80;;;;;;5022070;28;20017;-86
2021/05/09 11:44:42;;;;;;;2.20;1.60;;;23.30;53.70;;;;;;5003952;28;20025;-86
2021/05/09 11:47:29;;;;;;;3.13;1.85;;;23.30;54.30;;;;;;5002805;28;20021;-88
2021/05/09 11:50:08;;;;;;;2.35;1.65;;;23.30;53.60;;;;;;5031436;28;20029;-88
2021/05/09 11:52:36;;;;;;;3.08;1.83;;;23.30;53.70;;;;;;5023545;28;20021;-88
2021/05/09 11:55:05;;;;;;;2.85;1.63;;;23.30;53.70;;;;;;5023203;28;20060;-88
2021/05/09 11:57:32;;;;;;;2.13;1.50;;;23.30;53.90;;;;;;5013412;28;20492;-89
2021/05/09 12:00:12;;;;;;;2.38;1.92;;;23.30;54.00;;;;;;5018473;28;20030;-87
2021/05/09 12:02:40;;;;;;;1.95;1.60;;;23.30;54.10;;;;;;5032611;28;20036;-88
2021/05/09 12:05:16;;;;;;;2.33;1.70;;;23.20;54.40;;;;;;5030142;28;20456;-88
2021/05/09 12:07:43;;;;;;;1.73;1.50;;;23.20;54.70;;;;;;5022080;28;20034;-88
2021/05/09 12:10:11;;;;;;;1.60;1.50;;;23.20;54.70;;;;;;5002717;28;20018;-87
2021/05/09 12:12:38;;;;;;;2.97;1.20;;;23.10;54.80;;;;;;5012072;28;20102;-88
2021/05/09 12:15:08;;;;;;;1.88;1.60;;;23.10;55.10;;;;;;5031060;28;20034;-88
2021/05/09 12:17:43;;;;;;;4.43;1.98;;;23.10;55.20;;;;;;5021053;28;20040;-87
2021/05/09 12:20:09;;;;;;;1.33;1.10;;;23.20;55.40;;;;;;5032203;28;20045;-88
2021/05/09 12:22:39;;;;;;;2.83;1.42;;;23.20;55.40;;;;;;5031144;28;20044;-87
2021/05/09 12:25:06;;;;;;;3.17;1.80;;;23.20;55.60;;;;;;5031495;28;20403;-88
2021/05/09 12:27:31;;;;;;;3.13;2.10;;;23.20;55.50;;;;;;5032000;28;20126;-88
2021/05/09 12:29:58;;;;;;;2.75;1.80;;;23.20;55.20;;;;;;5032019;28;20488;-87
2021/05/09 12:32:30;;;;;;;3.72;1.85;;;23.30;55.30;;;;;;5031907;28;20701;-87
2021/05/09 12:35:09;;;;;;;1.95;1.50;;;23.30;55.20;;;;;;5031313;28;20091;-87
2021/05/09 12:37:56;;;;;;;2.95;1.60;;;23.30;55.30;;;;;;5031073;28;20029;-87
2021/05/09 12:40:24;;;;;;;1.92;1.70;;;23.40;55.30;;;;;;5022940;28;20056;-88
2021/05/09 12:43:06;;;;;;;2.83;1.70;;;23.50;55.20;;;;;;5022468;28;20048;-88
2021/05/09 12:45:35;;;;;;;1.85;1.25;;;23.50;55.00;;;;;;5021532;28;20095;-88
2021/05/09 12:48:02;;;;;;;2.90;1.98;;;23.50;55.00;;;;;;5002298;28;20041;-89
2021/05/09 12:50:46;;;;;;;2.17;1.40;;;23.50;55.10;;;;;;5004624;28;20116;-88
2021/05/09 12:53:12;;;;;;;2.53;1.20;;;23.50;55.10;;;;;;5021606;28;20095;-88
2021/05/09 12:55:39;;;;;;;2.33;1.67;;;23.60;55.20;;;;;;5003073;28;20053;-87
2021/05/09 12:58:05;;;;;;;1.77;1.25;;;23.60;54.90;;;;;;5024217;28;20025;-90
2021/05/09 13:00:31;;;;;;;4.15;1.98;;;23.60;54.60;;;;;;5005261;28;20038;-88
2021/05/09 13:02:57;;;;;;;2.38;1.40;;;23.70;54.50;;;;;;5002401;28;20018;-89
2021/05/09 13:05:24;;;;;;;1.73;1.48;;;23.70;54.40;;;;;;5020686;28;20064;-90
2021/05/09 13:07:50;;;;;;;4.25;1.80;;;23.70;54.40;;;;;;5003022;28;20121;-89
2021/05/09 13:10:23;;;;;;;3.45;1.75;;;23.80;54.40;;;;;;5021425;28;20101;-89
2021/05/09 13:12:49;;;;;;;2.90;1.50;;;23.90;54.00;;;;;;5003012;28;20481;-89
2021/05/09 13:15:15;;;;;;;1.40;1.30;;;24.10;53.80;;;;;;5019204;28;20051;-87
2021/05/09 13:17:41;;;;;;;2.10;1.70;;;24.30;53.60;;;;;;5001295;28;20025;-88
2021/05/09 13:20:07;;;;;;;2.15;1.52;;;24.50;53.50;;;;;;5023606;28;20026;-90
2021/05/09 13:22:33;;;;;;;3.05;2.00;;;24.70;52.80;;;;;;5022092;28;20080;-89
2021/05/09 13:24:59;;;;;;;2.63;1.80;;;24.80;52.20;;;;;;5023680;28;20025;-88
2021/05/09 13:27:30;;;;;;;3.40;1.92;;;25.00;52.20;;;;;;5021213;28;20603;-89
2021/05/09 13:29:56;;;;;;;2.90;1.80;;;25.00;51.90;;;;;;5007535;28;20542;-88
2021/05/09 13:32:22;;;;;;;3.33;1.80;;;25.00;51.90;;;;;;5024290;28;20041;-88
2021/05/09 13:34:47;;;;;;;1.83;1.50;;;25.20;51.90;;;;;;5003026;28;20539;-88
2021/05/09 13:37:13;;;;;;;3.97;1.77;;;25.30;51.30;;;;;;5024078;28;20026;-91
2021/05/09 13:39:39;;;;;;;3.28;1.98;;;25.40;50.60;;;;;;5026040;28;20033;-88
2021/05/09 13:42:05;;;;;;;1.25;1.15;;;25.60;50.20;;;;;;5023295;28;20112;-88
2021/05/09 13:44:30;;;;;;;2.60;1.63;;;25.70;49.70;;;;;;5020014;28;20151;-88
2021/05/09 13:46:56;;;;;;;3.50;1.92;;;25.80;49.50;;;;;;5022862;28;20018;-89
2021/05/09 13:49:21;;;;;;;2.75;1.60;;;26.00;48.80;;;;;;5023984;28;20080;-88
2021/05/09 13:51:47;;;;;;;2.33;1.80;;;26.00;48.50;;;;;;5022669;28;20028;-88
2021/05/09 13:54:13;;;;;;;4.32;2.05;;;26.10;48.40;;;;;;5003021;28;20030;-88
2021/05/09 13:56:39;;;;;;;2.78;1.80;;;26.20;48.10;;;;;;5022650;28;20030;-88